Burns, Kansas
Current Conditions -  °F | °C
As of 4:15 PM on Thursday 18 Dec 2014 (Local Time) from KEWK Reporting Station
Overcast Overcast  
Wind Chill: 23°   Ceiling: 800
Heat Index: 30°   Visibility: 8mi
Dew Point: 25°   Wind: 7mph
Humidity: 80%   Direction: 20°NNE
Pressure: 30.18"   Gusts: NA
Location:  38.09°N, 96.89°W
Report Text: KEWK 182215Z AUTO 02006KT 8SM OVC008 M01/M04 A3018 RMK AO1
Loading
Personal Weather Stations






























Interactive Weather Map New forecast layout! Learn more

10-Day Weather Forecast

Advertisements
Track Severe Weather on mobile